sensor_id;sensor_type;location;lat;lon;timestamp;P1;durP1;ratioP1;P2;durP2;ratioP2
17753;SDS011;8999;48.994;9.150;2023-08-01T00:01:07;6.05;;;3.50;;
17753;SDS011;8999;48.994;9.150;2023-08-01T00:03:40;4.47;;;3.38;;
17753;SDS011;8999;48.994;9.150;2023-08-01T00:06:11;8.85;;;3.78;;
17753;SDS011;8999;48.994;9.150;2023-08-01T00:08:43;6.32;;;3.30;;
17753;SDS011;8999;48.994;9.150;2023-08-01T00:11:15;8.45;;;4.47;;
17753;SDS011;8999;48.994;9.150;2023-08-01T00:13:46;7.68;;;4.07;;
17753;SDS011;8999;48.994;9.150;2023-08-01T00:16:18;6.63;;;3.95;;
17753;SDS011;8999;48.994;9.150;2023-08-01T00:18:51;4.38;;;3.58;;
17753;SDS011;8999;48.994;9.150;2023-08-01T00:21:22;7.35;;;3.55;;
17753;SDS011;8999;48.994;9.150;2023-08-01T00:23:54;4.43;;;3.30;;
17753;SDS011;8999;48.994;9.150;2023-08-01T00:26:26;6.65;;;3.78;;
17753;SDS011;8999;48.994;9.150;2023-08-01T00:28:57;8.13;;;3.55;;
17753;SDS011;8999;48.994;9.150;2023-08-01T00:31:29;7.22;;;3.70;;
17753;SDS011;8999;48.994;9.150;2023-08-01T00:34:02;6.57;;;3.80;;
17753;SDS011;8999;48.994;9.150;2023-08-01T00:36:34;5.32;;;3.70;;
17753;SDS011;8999;48.994;9.150;2023-08-01T00:39:05;8.20;;;3.92;;
17753;SDS011;8999;48.994;9.150;2023-08-01T00:41:37;5.95;;;3.70;;
17753;SDS011;8999;48.994;9.150;2023-08-01T00:44:08;8.30;;;4.10;;
17753;SDS011;8999;48.994;9.150;2023-08-01T00:46:40;6.32;;;3.78;;
17753;SDS011;8999;48.994;9.150;2023-08-01T00:49:13;5.43;;;3.95;;
17753;SDS011;8999;48.994;9.150;2023-08-01T00:51:45;5.35;;;3.83;;
17753;SDS011;8999;48.994;9.150;2023-08-01T00:54:17;8.32;;;4.07;;
17753;SDS011;8999;48.994;9.150;2023-08-01T00:56:48;7.53;;;4.38;;
17753;SDS011;8999;48.994;9.150;2023-08-01T00:59:20;6.72;;;3.85;;
17753;SDS011;8999;48.994;9.150;2023-08-01T01:01:52;8.70;;;4.55;;
17753;SDS011;8999;48.994;9.150;2023-08-01T01:04:25;7.30;;;4.45;;
17753;SDS011;8999;48.994;9.150;2023-08-01T01:06:57;7.50;;;4.28;;
17753;SDS011;8999;48.994;9.150;2023-08-01T01:09:31;5.50;;;3.90;;
17753;SDS011;8999;48.994;9.150;2023-08-01T01:12:03;7.43;;;4.40;;
17753;SDS011;8999;48.994;9.150;2023-08-01T01:14:35;8.25;;;3.85;;
17753;SDS011;8999;48.994;9.150;2023-08-01T01:17:07;6.15;;;4.15;;
17753;SDS011;8999;48.994;9.150;2023-08-01T01:19:40;8.05;;;3.90;;
17753;SDS011;8999;48.994;9.150;2023-08-01T01:22:13;7.28;;;3.70;;
17753;SDS011;8999;48.994;9.150;2023-08-01T01:24:45;7.72;;;4.20;;
17753;SDS011;8999;48.994;9.150;2023-08-01T01:27:17;6.30;;;3.92;;
17753;SDS011;8999;48.994;9.150;2023-08-01T01:29:49;5.63;;;3.88;;
17753;SDS011;8999;48.994;9.150;2023-08-01T01:32:21;7.45;;;4.00;;
17753;SDS011;8999;48.994;9.150;2023-08-01T01:34:53;7.70;;;4.47;;
17753;SDS011;8999;48.994;9.150;2023-08-01T01:37:26;6.70;;;4.15;;
17753;SDS011;8999;48.994;9.150;2023-08-01T01:39:58;5.90;;;4.45;;
17753;SDS011;8999;48.994;9.150;2023-08-01T01:42:29;6.65;;;3.97;;
17753;SDS011;8999;48.994;9.150;2023-08-01T01:45:01;5.22;;;4.13;;
17753;SDS011;8999;48.994;9.150;2023-08-01T01:47:32;6.65;;;4.30;;
17753;SDS011;8999;48.994;9.150;2023-08-01T01:50:04;7.75;;;4.00;;
17753;SDS011;8999;48.994;9.150;2023-08-01T01:52:38;8.50;;;4.43;;
17753;SDS011;8999;48.994;9.150;2023-08-01T01:55:10;5.80;;;4.38;;
17753;SDS011;8999;48.994;9.150;2023-08-01T01:57:41;8.50;;;4.30;;
17753;SDS011;8999;48.994;9.150;2023-08-01T02:00:13;5.57;;;3.85;;
17753;SDS011;8999;48.994;9.150;2023-08-01T02:02:45;8.02;;;4.47;;
17753;SDS011;8999;48.994;9.150;2023-08-01T02:05:16;5.95;;;4.03;;
17753;SDS011;8999;48.994;9.150;2023-08-01T02:07:49;5.90;;;4.35;;
17753;SDS011;8999;48.994;9.150;2023-08-01T02:10:21;8.70;;;4.50;;
17753;SDS011;8999;48.994;9.150;2023-08-01T02:12:52;8.77;;;5.03;;
17753;SDS011;8999;48.994;9.150;2023-08-01T02:15:24;10.05;;;4.75;;
17753;SDS011;8999;48.994;9.150;2023-08-01T02:17:56;12.48;;;5.25;;
17753;SDS011;8999;48.994;9.150;2023-08-01T02:20:27;8.50;;;4.90;;
17753;SDS011;8999;48.994;9.150;2023-08-01T02:23:00;9.35;;;5.45;;
17753;SDS011;8999;48.994;9.150;2023-08-01T02:25:32;7.63;;;4.78;;
17753;SDS011;8999;48.994;9.150;2023-08-01T02:28:03;8.00;;;4.75;;
17753;SDS011;8999;48.994;9.150;2023-08-01T02:30:35;7.85;;;4.78;;
17753;SDS011;8999;48.994;9.150;2023-08-01T02:33:07;8.15;;;5.18;;
17753;SDS011;8999;48.994;9.150;2023-08-01T02:35:38;7.70;;;4.82;;
17753;SDS011;8999;48.994;9.150;2023-08-01T02:38:12;9.55;;;4.20;;
17753;SDS011;8999;48.994;9.150;2023-08-01T02:40:43;7.85;;;4.72;;
17753;SDS011;8999;48.994;9.150;2023-08-01T02:43:15;10.60;;;4.68;;
17753;SDS011;8999;48.994;9.150;2023-08-01T02:45:47;7.47;;;4.78;;
17753;SDS011;8999;48.994;9.150;2023-08-01T02:48:19;6.72;;;4.38;;
17753;SDS011;8999;48.994;9.150;2023-08-01T02:50:50;7.75;;;4.90;;
17753;SDS011;8999;48.994;9.150;2023-08-01T02:53:23;9.20;;;5.22;;
17753;SDS011;8999;48.994;9.150;2023-08-01T02:55:55;7.85;;;4.70;;
17753;SDS011;8999;48.994;9.150;2023-08-01T02:58:27;7.75;;;5.20;;
17753;SDS011;8999;48.994;9.150;2023-08-01T03:01:05;8.82;;;4.70;;
17753;SDS011;8999;48.994;9.150;2023-08-01T03:03:39;7.88;;;4.88;;
17753;SDS011;8999;48.994;9.150;2023-08-01T03:06:11;7.45;;;4.90;;
17753;SDS011;8999;48.994;9.150;2023-08-01T03:08:45;44.58;;;24.98;;
17753;SDS011;8999;48.994;9.150;2023-08-01T03:11:17;14.50;;;8.10;;
17753;SDS011;8999;48.994;9.150;2023-08-01T03:13:49;9.55;;;4.97;;
17753;SDS011;8999;48.994;9.150;2023-08-01T03:16:21;9.40;;;5.72;;
17753;SDS011;8999;48.994;9.150;2023-08-01T03:18:53;7.63;;;5.07;;
17753;SDS011;8999;48.994;9.150;2023-08-01T03:21:24;9.48;;;5.97;;
17753;SDS011;8999;48.994;9.150;2023-08-01T03:23:58;9.48;;;6.07;;
17753;SDS011;8999;48.994;9.150;2023-08-01T03:26:31;9.23;;;5.60;;
17753;SDS011;8999;48.994;9.150;2023-08-01T03:29:02;8.25;;;5.75;;
17753;SDS011;8999;48.994;9.150;2023-08-01T03:31:35;10.10;;;5.70;;
17753;SDS011;8999;48.994;9.150;2023-08-01T03:34:07;12.95;;;7.80;;
17753;SDS011;8999;48.994;9.150;2023-08-01T03:36:38;8.23;;;5.13;;
17753;SDS011;8999;48.994;9.150;2023-08-01T03:39:11;12.15;;;6.20;;
17753;SDS011;8999;48.994;9.150;2023-08-01T03:41:43;7.90;;;5.43;;
17753;SDS011;8999;48.994;9.150;2023-08-01T03:44:15;10.85;;;6.07;;
17753;SDS011;8999;48.994;9.150;2023-08-01T03:46:47;10.30;;;6.03;;
17753;SDS011;8999;48.994;9.150;2023-08-01T03:49:18;9.02;;;5.18;;
17753;SDS011;8999;48.994;9.150;2023-08-01T03:51:50;14.38;;;7.38;;
17753;SDS011;8999;48.994;9.150;2023-08-01T03:54:23;5.97;;;4.80;;
17753;SDS011;8999;48.994;9.150;2023-08-01T03:56:55;10.50;;;4.85;;
17753;SDS011;8999;48.994;9.150;2023-08-01T03:59:26;10.68;;;4.38;;
17753;SDS011;8999;48.994;9.150;2023-08-01T04:01:58;6.22;;;4.72;;
17753;SDS011;8999;48.994;9.150;2023-08-01T04:04:30;5.32;;;4.10;;
17753;SDS011;8999;48.994;9.150;2023-08-01T04:07:02;7.07;;;4.38;;
17753;SDS011;8999;48.994;9.150;2023-08-01T04:09:35;7.35;;;4.22;;
17753;SDS011;8999;48.994;9.150;2023-08-01T04:12:08;7.43;;;4.30;;
17753;SDS011;8999;48.994;9.150;2023-08-01T04:14:40;7.68;;;4.60;;
17753;SDS011;8999;48.994;9.150;2023-08-01T04:17:12;7.07;;;4.40;;
17753;SDS011;8999;48.994;9.150;2023-08-01T04:19:43;7.72;;;4.30;;
17753;SDS011;8999;48.994;9.150;2023-08-01T04:22:15;6.05;;;4.15;;
17753;SDS011;8999;48.994;9.150;2023-08-01T04:24:48;6.93;;;4.30;;
17753;SDS011;8999;48.994;9.150;2023-08-01T04:27:20;6.18;;;4.35;;
17753;SDS011;8999;48.994;9.150;2023-08-01T04:29:55;8.30;;;5.18;;
17753;SDS011;8999;48.994;9.150;2023-08-01T04:32:30;6.63;;;4.68;;
17753;SDS011;8999;48.994;9.150;2023-08-01T04:35:01;7.72;;;4.68;;
17753;SDS011;8999;48.994;9.150;2023-08-01T04:37:38;5.97;;;4.38;;
17753;SDS011;8999;48.994;9.150;2023-08-01T04:40:15;6.25;;;4.18;;
17753;SDS011;8999;48.994;9.150;2023-08-01T04:42:47;8.13;;;4.68;;
17753;SDS011;8999;48.994;9.150;2023-08-01T04:45:18;7.78;;;4.97;;
17753;SDS011;8999;48.994;9.150;2023-08-01T04:47:50;6.65;;;4.70;;
17753;SDS011;8999;48.994;9.150;2023-08-01T04:50:21;7.13;;;4.75;;
17753;SDS011;8999;48.994;9.150;2023-08-01T04:52:53;8.55;;;4.80;;
17753;SDS011;8999;48.994;9.150;2023-08-01T04:55:27;6.20;;;4.35;;
17753;SDS011;8999;48.994;9.150;2023-08-01T04:57:58;8.32;;;4.70;;
17753;SDS011;8999;48.994;9.150;2023-08-01T05:00:30;6.45;;;4.65;;
17753;SDS011;8999;48.994;9.150;2023-08-01T05:03:01;8.20;;;4.88;;
17753;SDS011;8999;48.994;9.150;2023-08-01T05:05:33;8.27;;;4.43;;
17753;SDS011;8999;48.994;9.150;2023-08-01T05:08:05;5.72;;;4.50;;
17753;SDS011;8999;48.994;9.150;2023-08-01T05:10:40;8.30;;;4.43;;
17753;SDS011;8999;48.994;9.150;2023-08-01T05:13:16;7.97;;;4.60;;
17753;SDS011;8999;48.994;9.150;2023-08-01T05:16:13;7.47;;;4.45;;
17753;SDS011;8999;48.994;9.150;2023-08-01T05:18:45;5.70;;;4.28;;
17753;SDS011;8999;48.994;9.150;2023-08-01T05:21:18;7.85;;;3.92;;
17753;SDS011;8999;48.994;9.150;2023-08-01T05:23:50;7.10;;;3.53;;
17753;SDS011;8999;48.994;9.150;2023-08-01T05:26:29;5.30;;;3.30;;
17753;SDS011;8999;48.994;9.150;2023-08-01T05:29:03;4.72;;;3.28;;
17753;SDS011;8999;48.994;9.150;2023-08-01T05:31:40;8.98;;;3.83;;
17753;SDS011;8999;48.994;9.150;2023-08-01T05:34:14;5.32;;;3.45;;
17753;SDS011;8999;48.994;9.150;2023-08-01T05:36:46;4.93;;;3.60;;
17753;SDS011;8999;48.994;9.150;2023-08-01T05:39:18;5.78;;;3.80;;
17753;SDS011;8999;48.994;9.150;2023-08-01T05:41:54;6.88;;;3.70;;
17753;SDS011;8999;48.994;9.150;2023-08-01T05:44:26;9.60;;;3.78;;
17753;SDS011;8999;48.994;9.150;2023-08-01T05:46:58;7.70;;;3.42;;
17753;SDS011;8999;48.994;9.150;2023-08-01T05:49:29;8.10;;;3.70;;
17753;SDS011;8999;48.994;9.150;2023-08-01T05:52:02;6.25;;;3.47;;
17753;SDS011;8999;48.994;9.150;2023-08-01T05:54:33;4.43;;;3.20;;
17753;SDS011;8999;48.994;9.150;2023-08-01T05:57:16;4.72;;;3.47;;
17753;SDS011;8999;48.994;9.150;2023-08-01T05:59:50;6.00;;;3.60;;
17753;SDS011;8999;48.994;9.150;2023-08-01T06:02:32;8.90;;;4.20;;
17753;SDS011;8999;48.994;9.150;2023-08-01T06:05:10;4.90;;;3.40;;
17753;SDS011;8999;48.994;9.150;2023-08-01T06:07:44;6.72;;;3.83;;
17753;SDS011;8999;48.994;9.150;2023-08-01T06:10:18;7.05;;;3.63;;
17753;SDS011;8999;48.994;9.150;2023-08-01T06:12:51;7.88;;;3.70;;
17753;SDS011;8999;48.994;9.150;2023-08-01T06:15:22;6.40;;;4.03;;
17753;SDS011;8999;48.994;9.150;2023-08-01T06:17:54;5.10;;;3.70;;
17753;SDS011;8999;48.994;9.150;2023-08-01T06:20:26;5.22;;;3.45;;
17753;SDS011;8999;48.994;9.150;2023-08-01T06:22:58;5.72;;;3.70;;
17753;SDS011;8999;48.994;9.150;2023-08-01T06:25:30;4.18;;;3.42;;
17753;SDS011;8999;48.994;9.150;2023-08-01T06:28:03;4.72;;;3.50;;
17753;SDS011;8999;48.994;9.150;2023-08-01T06:30:35;6.55;;;4.22;;
17753;SDS011;8999;48.994;9.150;2023-08-01T06:33:07;7.47;;;4.53;;
17753;SDS011;8999;48.994;9.150;2023-08-01T06:35:42;7.97;;;5.43;;
17753;SDS011;8999;48.994;9.150;2023-08-01T06:38:17;7.43;;;4.43;;
17753;SDS011;8999;48.994;9.150;2023-08-01T06:40:51;9.27;;;4.70;;
17753;SDS011;8999;48.994;9.150;2023-08-01T06:43:29;6.47;;;3.85;;
17753;SDS011;8999;48.994;9.150;2023-08-01T06:46:07;8.95;;;4.10;;
17753;SDS011;8999;48.994;9.150;2023-08-01T06:48:39;7.55;;;3.90;;
17753;SDS011;8999;48.994;9.150;2023-08-01T06:51:11;7.78;;;4.28;;
17753;SDS011;8999;48.994;9.150;2023-08-01T06:53:43;6.18;;;3.78;;
17753;SDS011;8999;48.994;9.150;2023-08-01T06:56:15;5.65;;;3.80;;
17753;SDS011;8999;48.994;9.150;2023-08-01T06:58:48;8.30;;;4.22;;
17753;SDS011;8999;48.994;9.150;2023-08-01T07:01:19;8.63;;;4.45;;
17753;SDS011;8999;48.994;9.150;2023-08-01T07:03:52;7.20;;;4.10;;
17753;SDS011;8999;48.994;9.150;2023-08-01T07:06:25;6.40;;;4.32;;
17753;SDS011;8999;48.994;9.150;2023-08-01T07:08:56;6.43;;;4.15;;
17753;SDS011;8999;48.994;9.150;2023-08-01T07:11:28;6.88;;;4.25;;
17753;SDS011;8999;48.994;9.150;2023-08-01T07:14:04;11.45;;;4.65;;
17753;SDS011;8999;48.994;9.150;2023-08-01T07:16:36;4.95;;;4.07;;
17753;SDS011;8999;48.994;9.150;2023-08-01T07:19:12;6.50;;;3.83;;
17753;SDS011;8999;48.994;9.150;2023-08-01T07:28:43;7.78;;;4.85;;
17753;SDS011;8999;48.994;9.150;2023-08-01T07:34:50;7.95;;;5.15;;
17753;SDS011;8999;48.994;9.150;2023-08-01T07:37:27;9.23;;;5.22;;
17753;SDS011;8999;48.994;9.150;2023-08-01T07:40:03;10.77;;;5.13;;
17753;SDS011;8999;48.994;9.150;2023-08-01T07:42:38;7.85;;;4.88;;
17753;SDS011;8999;48.994;9.150;2023-08-01T07:45:10;7.18;;;5.07;;
17753;SDS011;8999;48.994;9.150;2023-08-01T07:47:43;9.35;;;4.93;;
17753;SDS011;8999;48.994;9.150;2023-08-01T07:50:15;8.35;;;5.63;;
17753;SDS011;8999;48.994;9.150;2023-08-01T07:52:47;7.70;;;5.47;;
17753;SDS011;8999;48.994;9.150;2023-08-01T07:55:19;8.52;;;5.22;;
17753;SDS011;8999;48.994;9.150;2023-08-01T07:57:51;9.32;;;5.03;;
17753;SDS011;8999;48.994;9.150;2023-08-01T08:00:23;8.75;;;5.25;;
17753;SDS011;8999;48.994;9.150;2023-08-01T08:02:58;9.63;;;5.82;;
17753;SDS011;8999;48.994;9.150;2023-08-01T08:05:30;7.20;;;4.93;;
17753;SDS011;8999;48.994;9.150;2023-08-01T08:08:05;8.57;;;4.82;;
17753;SDS011;8999;48.994;9.150;2023-08-01T08:10:37;7.32;;;4.90;;
17753;SDS011;8999;48.994;9.150;2023-08-01T08:13:11;11.30;;;5.78;;
17753;SDS011;8999;48.994;9.150;2023-08-01T08:15:45;6.60;;;4.47;;
17753;SDS011;8999;48.994;9.150;2023-08-01T08:18:21;8.60;;;4.90;;
17753;SDS011;8999;48.994;9.150;2023-08-01T08:20:56;7.32;;;4.95;;
17753;SDS011;8999;48.994;9.150;2023-08-01T08:23:33;7.47;;;5.32;;
17753;SDS011;8999;48.994;9.150;2023-08-01T08:26:12;5.68;;;4.10;;
17753;SDS011;8999;48.994;9.150;2023-08-01T08:28:44;8.65;;;5.30;;
17753;SDS011;8999;48.994;9.150;2023-08-01T08:31:22;5.75;;;4.32;;
17753;SDS011;8999;48.994;9.150;2023-08-01T08:34:09;6.47;;;4.18;;
17753;SDS011;8999;48.994;9.150;2023-08-01T08:36:43;5.10;;;3.83;;
17753;SDS011;8999;48.994;9.150;2023-08-01T08:39:17;5.30;;;3.92;;
17753;SDS011;8999;48.994;9.150;2023-08-01T08:42:00;6.05;;;4.03;;
17753;SDS011;8999;48.994;9.150;2023-08-01T08:44:41;5.60;;;3.60;;
17753;SDS011;8999;48.994;9.150;2023-08-01T08:47:26;4.65;;;3.55;;
17753;SDS011;8999;48.994;9.150;2023-08-01T08:50:00;4.07;;;3.67;;
17753;SDS011;8999;48.994;9.150;2023-08-01T08:52:32;5.82;;;3.95;;
17753;SDS011;8999;48.994;9.150;2023-08-01T08:55:04;4.80;;;3.67;;
17753;SDS011;8999;48.994;9.150;2023-08-01T08:57:37;4.93;;;4.00;;
17753;SDS011;8999;48.994;9.150;2023-08-01T09:00:10;4.93;;;3.95;;
17753;SDS011;8999;48.994;9.150;2023-08-01T09:02:43;6.25;;;3.83;;
17753;SDS011;8999;48.994;9.150;2023-08-01T09:05:19;6.47;;;4.38;;
17753;SDS011;8999;48.994;9.150;2023-08-01T09:07:54;7.45;;;4.30;;
17753;SDS011;8999;48.994;9.150;2023-08-01T09:10:28;7.10;;;4.30;;
17753;SDS011;8999;48.994;9.150;2023-08-01T09:13:22;6.63;;;4.22;;
17753;SDS011;8999;48.994;9.150;2023-08-01T09:16:30;5.30;;;3.92;;
17753;SDS011;8999;48.994;9.150;2023-08-01T09:19:45;4.47;;;3.42;;
17753;SDS011;8999;48.994;9.150;2023-08-01T09:22:18;6.63;;;4.10;;
17753;SDS011;8999;48.994;9.150;2023-08-01T09:24:58;6.13;;;3.80;;
17753;SDS011;8999;48.994;9.150;2023-08-01T09:27:33;4.20;;;3.28;;
17753;SDS011;8999;48.994;9.150;2023-08-01T09:30:14;3.55;;;2.92;;
17753;SDS011;8999;48.994;9.150;2023-08-01T09:32:53;4.63;;;2.97;;
17753;SDS011;8999;48.994;9.150;2023-08-01T09:35:26;3.13;;;2.50;;
17753;SDS011;8999;48.994;9.150;2023-08-01T09:38:57;2.60;;;2.05;;
17753;SDS011;8999;48.994;9.150;2023-08-01T09:41:59;2.95;;;2.35;;
17753;SDS011;8999;48.994;9.150;2023-08-01T09:44:44;4.07;;;3.00;;
17753;SDS011;8999;48.994;9.150;2023-08-01T09:47:25;2.67;;;1.80;;
17753;SDS011;8999;48.994;9.150;2023-08-01T09:50:23;2.55;;;1.55;;
17753;SDS011;8999;48.994;9.150;2023-08-01T09:53:06;1.45;;;1.10;;
17753;SDS011;8999;48.994;9.150;2023-08-01T09:56:02;0.95;;;0.85;;
17753;SDS011;8999;48.994;9.150;2023-08-01T09:58:54;0.52;;;0.50;;
17753;SDS011;8999;48.994;9.150;2023-08-01T10:01:30;1.17;;;0.70;;
17753;SDS011;8999;48.994;9.150;2023-08-01T10:04:08;1.10;;;0.60;;
17753;SDS011;8999;48.994;9.150;2023-08-01T10:06:44;0.60;;;0.60;;
17753;SDS011;8999;48.994;9.150;2023-08-01T10:09:21;1.70;;;0.50;;
17753;SDS011;8999;48.994;9.150;2023-08-01T10:12:05;0.77;;;0.60;;
17753;SDS011;8999;48.994;9.150;2023-08-01T10:14:38;0.63;;;0.50;;
17753;SDS011;8999;48.994;9.150;2023-08-01T10:17:14;0.60;;;0.50;;
17753;SDS011;8999;48.994;9.150;2023-08-01T10:19:49;2.67;;;0.60;;
17753;SDS011;8999;48.994;9.150;2023-08-01T10:22:23;1.48;;;0.60;;
17753;SDS011;8999;48.994;9.150;2023-08-01T10:24:56;0.77;;;0.50;;
17753;SDS011;8999;48.994;9.150;2023-08-01T10:27:43;2.88;;;0.98;;
17753;SDS011;8999;48.994;9.150;2023-08-01T10:30:25;0.90;;;0.70;;
17753;SDS011;8999;48.994;9.150;2023-08-01T10:33:00;2.10;;;0.60;;
17753;SDS011;8999;48.994;9.150;2023-08-01T10:35:40;2.20;;;0.65;;
17753;SDS011;8999;48.994;9.150;2023-08-01T10:38:12;2.80;;;0.60;;
17753;SDS011;8999;48.994;9.150;2023-08-01T10:40:44;0.60;;;0.60;;
17753;SDS011;8999;48.994;9.150;2023-08-01T10:43:21;0.93;;;0.52;;
17753;SDS011;8999;48.994;9.150;2023-08-01T10:46:00;1.27;;;0.60;;
17753;SDS011;8999;48.994;9.150;2023-08-01T10:48:33;0.80;;;0.73;;
17753;SDS011;8999;48.994;9.150;2023-08-01T10:51:05;1.50;;;0.80;;
17753;SDS011;8999;48.994;9.150;2023-08-01T10:53:37;2.35;;;0.75;;
17753;SDS011;8999;48.994;9.150;2023-08-01T10:56:17;0.75;;;0.57;;
17753;SDS011;8999;48.994;9.150;2023-08-01T10:58:51;0.70;;;0.60;;
17753;SDS011;8999;48.994;9.150;2023-08-01T11:01:23;1.15;;;0.70;;
17753;SDS011;8999;48.994;9.150;2023-08-01T11:03:58;1.17;;;0.90;;
17753;SDS011;8999;48.994;9.150;2023-08-01T11:06:30;1.35;;;0.90;;
17753;SDS011;8999;48.994;9.150;2023-08-01T11:09:02;1.17;;;0.75;;
17753;SDS011;8999;48.994;9.150;2023-08-01T11:11:34;1.55;;;0.70;;
17753;SDS011;8999;48.994;9.150;2023-08-01T11:14:07;2.13;;;0.70;;
17753;SDS011;8999;48.994;9.150;2023-08-01T11:16:40;2.88;;;0.70;;
17753;SDS011;8999;48.994;9.150;2023-08-01T11:19:19;0.90;;;0.73;;
17753;SDS011;8999;48.994;9.150;2023-08-01T11:21:51;2.45;;;0.80;;
17753;SDS011;8999;48.994;9.150;2023-08-01T11:24:26;1.10;;;0.70;;
17753;SDS011;8999;48.994;9.150;2023-08-01T11:26:58;1.20;;;0.85;;
17753;SDS011;8999;48.994;9.150;2023-08-01T11:29:37;3.28;;;0.73;;
17753;SDS011;8999;48.994;9.150;2023-08-01T11:32:10;1.38;;;0.70;;
17753;SDS011;8999;48.994;9.150;2023-08-01T11:34:42;1.00;;;0.75;;
17753;SDS011;8999;48.994;9.150;2023-08-01T11:37:17;1.05;;;0.70;;
17753;SDS011;8999;48.994;9.150;2023-08-01T11:39:51;0.98;;;0.70;;
17753;SDS011;8999;48.994;9.150;2023-08-01T11:42:23;1.95;;;0.73;;
17753;SDS011;8999;48.994;9.150;2023-08-01T11:45:06;1.55;;;0.90;;
17753;SDS011;8999;48.994;9.150;2023-08-01T11:47:44;0.82;;;0.63;;
17753;SDS011;8999;48.994;9.150;2023-08-01T11:50:20;1.35;;;0.90;;
17753;SDS011;8999;48.994;9.150;2023-08-01T11:52:53;1.25;;;0.77;;
17753;SDS011;8999;48.994;9.150;2023-08-01T11:55:26;1.60;;;0.90;;
17753;SDS011;8999;48.994;9.150;2023-08-01T11:57:58;3.53;;;1.02;;
17753;SDS011;8999;48.994;9.150;2023-08-01T12:00:33;0.98;;;0.68;;
17753;SDS011;8999;48.994;9.150;2023-08-01T12:03:09;1.88;;;1.05;;
17753;SDS011;8999;48.994;9.150;2023-08-01T12:05:43;1.73;;;1.10;;
17753;SDS011;8999;48.994;9.150;2023-08-01T12:08:15;1.35;;;0.93;;
17753;SDS011;8999;48.994;9.150;2023-08-01T12:10:47;1.75;;;1.17;;
17753;SDS011;8999;48.994;9.150;2023-08-01T12:13:20;0.95;;;0.82;;
17753;SDS011;8999;48.994;9.150;2023-08-01T12:15:55;1.50;;;1.02;;
17753;SDS011;8999;48.994;9.150;2023-08-01T12:18:28;1.33;;;0.85;;
17753;SDS011;8999;48.994;9.150;2023-08-01T12:21:00;1.45;;;1.27;;
17753;SDS011;8999;48.994;9.150;2023-08-01T12:23:32;2.67;;;1.10;;
17753;SDS011;8999;48.994;9.150;2023-08-01T12:26:03;2.72;;;1.30;;
17753;SDS011;8999;48.994;9.150;2023-08-01T12:28:35;2.13;;;1.15;;
17753;SDS011;8999;48.994;9.150;2023-08-01T12:31:08;2.13;;;1.00;;
17753;SDS011;8999;48.994;9.150;2023-08-01T12:33:40;1.35;;;0.98;;
17753;SDS011;8999;48.994;9.150;2023-08-01T12:36:12;1.73;;;1.10;;
17753;SDS011;8999;48.994;9.150;2023-08-01T12:38:44;3.40;;;1.23;;
17753;SDS011;8999;48.994;9.150;2023-08-01T12:41:15;1.83;;;1.20;;
17753;SDS011;8999;48.994;9.150;2023-08-01T12:43:47;2.28;;;1.30;;
17753;SDS011;8999;48.994;9.150;2023-08-01T12:46:20;1.30;;;1.00;;
17753;SDS011;8999;48.994;9.150;2023-08-01T12:48:53;1.60;;;0.95;;
17753;SDS011;8999;48.994;9.150;2023-08-01T12:51:27;2.33;;;1.23;;
17753;SDS011;8999;48.994;9.150;2023-08-01T12:54:00;1.80;;;1.33;;
17753;SDS011;8999;48.994;9.150;2023-08-01T12:56:32;1.20;;;1.02;;
17753;SDS011;8999;48.994;9.150;2023-08-01T12:59:03;4.13;;;1.23;;
17753;SDS011;8999;48.994;9.150;2023-08-01T13:01:36;4.07;;;1.27;;
17753;SDS011;8999;48.994;9.150;2023-08-01T13:04:08;2.53;;;1.30;;
17753;SDS011;8999;48.994;9.150;2023-08-01T13:06:39;2.00;;;1.08;;
17753;SDS011;8999;48.994;9.150;2023-08-01T13:09:11;4.53;;;1.05;;
17753;SDS011;8999;48.994;9.150;2023-08-01T13:11:43;1.88;;;1.23;;
17753;SDS011;8999;48.994;9.150;2023-08-01T13:14:14;2.15;;;1.10;;
17753;SDS011;8999;48.994;9.150;2023-08-01T13:16:47;2.55;;;1.02;;
17753;SDS011;8999;48.994;9.150;2023-08-01T13:19:19;2.30;;;1.15;;
17753;SDS011;8999;48.994;9.150;2023-08-01T13:21:50;2.83;;;1.00;;
17753;SDS011;8999;48.994;9.150;2023-08-01T13:24:22;2.47;;;1.00;;
17753;SDS011;8999;48.994;9.150;2023-08-01T13:26:54;2.03;;;1.15;;
17753;SDS011;8999;48.994;9.150;2023-08-01T13:29:25;1.92;;;1.00;;
17753;SDS011;8999;48.994;9.150;2023-08-01T13:31:58;2.65;;;1.00;;
17753;SDS011;8999;48.994;9.150;2023-08-01T13:34:30;1.80;;;1.05;;
17753;SDS011;8999;48.994;9.150;2023-08-01T13:37:01;2.58;;;1.10;;
17753;SDS011;8999;48.994;9.150;2023-08-01T13:39:33;1.35;;;1.15;;
17753;SDS011;8999;48.994;9.150;2023-08-01T13:42:06;1.42;;;1.05;;
17753;SDS011;8999;48.994;9.150;2023-08-01T13:44:43;1.60;;;1.00;;
17753;SDS011;8999;48.994;9.150;2023-08-01T13:47:16;2.05;;;1.05;;
17753;SDS011;8999;48.994;9.150;2023-08-01T13:49:51;2.95;;;1.20;;
17753;SDS011;8999;48.994;9.150;2023-08-01T13:52:25;4.38;;;1.20;;
17753;SDS011;8999;48.994;9.150;2023-08-01T13:57:35;1.90;;;0.88;;
17753;SDS011;8999;48.994;9.150;2023-08-01T14:00:07;2.45;;;0.95;;
17753;SDS011;8999;48.994;9.150;2023-08-01T14:02:42;5.13;;;1.10;;
17753;SDS011;8999;48.994;9.150;2023-08-01T14:05:15;1.77;;;1.10;;
17753;SDS011;8999;48.994;9.150;2023-08-01T14:07:47;2.67;;;1.05;;
17753;SDS011;8999;48.994;9.150;2023-08-01T14:10:20;2.28;;;1.00;;
17753;SDS011;8999;48.994;9.150;2023-08-01T14:12:53;3.17;;;1.15;;
17753;SDS011;8999;48.994;9.150;2023-08-01T14:18:00;3.75;;;1.40;;
17753;SDS011;8999;48.994;9.150;2023-08-01T14:20:32;1.80;;;1.20;;
17753;SDS011;8999;48.994;9.150;2023-08-01T14:23:03;2.78;;;1.70;;
17753;SDS011;8999;48.994;9.150;2023-08-01T14:25:35;3.13;;;1.33;;
17753;SDS011;8999;48.994;9.150;2023-08-01T14:28:07;1.50;;;1.10;;
17753;SDS011;8999;48.994;9.150;2023-08-01T14:30:38;2.25;;;1.30;;
17753;SDS011;8999;48.994;9.150;2023-08-01T14:33:12;5.07;;;1.20;;
17753;SDS011;8999;48.994;9.150;2023-08-01T14:35:44;1.98;;;1.05;;
17753;SDS011;8999;48.994;9.150;2023-08-01T14:38:16;1.73;;;1.13;;
17753;SDS011;8999;48.994;9.150;2023-08-01T14:40:48;2.03;;;1.20;;
17753;SDS011;8999;48.994;9.150;2023-08-01T14:43:20;2.25;;;1.40;;
17753;SDS011;8999;48.994;9.150;2023-08-01T14:45:52;2.35;;;1.63;;
17753;SDS011;8999;48.994;9.150;2023-08-01T14:48:25;2.20;;;1.02;;
17753;SDS011;8999;48.994;9.150;2023-08-01T14:50:57;3.50;;;1.30;;
17753;SDS011;8999;48.994;9.150;2023-08-01T14:53:28;2.60;;;1.10;;
17753;SDS011;8999;48.994;9.150;2023-08-01T14:56:00;1.33;;;1.00;;
17753;SDS011;8999;48.994;9.150;2023-08-01T14:58:33;2.75;;;1.13;;
17753;SDS011;8999;48.994;9.150;2023-08-01T15:01:12;3.38;;;1.52;;
17753;SDS011;8999;48.994;9.150;2023-08-01T15:03:45;4.15;;;1.42;;
17753;SDS011;8999;48.994;9.150;2023-08-01T15:06:17;2.20;;;1.48;;
17753;SDS011;8999;48.994;9.150;2023-08-01T15:08:48;2.92;;;1.30;;
17753;SDS011;8999;48.994;9.150;2023-08-01T15:11:20;2.05;;;1.25;;
17753;SDS011;8999;48.994;9.150;2023-08-01T15:13:52;2.22;;;1.10;;
17753;SDS011;8999;48.994;9.150;2023-08-01T15:16:23;3.83;;;1.33;;
17753;SDS011;8999;48.994;9.150;2023-08-01T15:18:57;1.55;;;1.02;;
17753;SDS011;8999;48.994;9.150;2023-08-01T15:21:28;2.95;;;1.75;;
17753;SDS011;8999;48.994;9.150;2023-08-01T15:24:00;7.28;;;1.30;;
17753;SDS011;8999;48.994;9.150;2023-08-01T15:26:31;2.55;;;1.42;;
17753;SDS011;8999;48.994;9.150;2023-08-01T15:29:03;1.30;;;1.10;;
17753;SDS011;8999;48.994;9.150;2023-08-01T15:31:35;2.60;;;1.00;;
17753;SDS011;8999;48.994;9.150;2023-08-01T15:34:08;2.40;;;1.10;;
17753;SDS011;8999;48.994;9.150;2023-08-01T15:36:40;1.67;;;1.27;;
17753;SDS011;8999;48.994;9.150;2023-08-01T15:39:12;2.88;;;1.30;;
17753;SDS011;8999;48.994;9.150;2023-08-01T15:41:44;2.58;;;1.23;;
17753;SDS011;8999;48.994;9.150;2023-08-01T15:44:15;2.08;;;1.40;;
17753;SDS011;8999;48.994;9.150;2023-08-01T15:46:47;2.05;;;1.20;;
17753;SDS011;8999;48.994;9.150;2023-08-01T15:49:20;1.67;;;1.27;;
17753;SDS011;8999;48.994;9.150;2023-08-01T15:51:52;4.30;;;1.13;;
17753;SDS011;8999;48.994;9.150;2023-08-01T15:54:23;3.45;;;1.38;;
17753;SDS011;8999;48.994;9.150;2023-08-01T15:56:55;2.63;;;1.10;;